Aérodrome :
LOGIN :

S'inscrire | Disclaimer

   EN    FR    IT 

 










Légende :    VFR   VFR Marginal   IFR   IFR Intensif   IFR Très Intensif
Visi : 
Plafond : 
>= 8 km
>= 3000ft
5 à 8 km
1000 à 3000 ft
1500m à 5 km
500 à 1000 ft
800 à 1500m
200 à 500 ft
< 800m
< 200 ft
Symboles :   Orages  Brouillard  Fortes neiges  Fortes précipitations  Vent > 20 kt
SIGMETs :   Divers  Orages  Givrage  Turbulence  Onde Orograph.  Cendres Volcan.







- Altitude de l'aérodrome : 247 ft
- Code IATA : BLL


EKBI - Billund

METARs EXPIRÉS :
  • 241420Z AUTO 26017KT 230V290 9999NDV BKN033/// 16/09 Q1006
  • 241350Z AUTO 26022KT 9999NDV SCT031/// BKN038/// 15/08 Q1006
  • 241320Z AUTO 26021G32KT 9999NDV BKN028/// 16/09 Q1006
  • 241250Z AUTO 26017G28KT 230V290 9999NDV BKN027/// 16/10 Q1006
  • 241220Z AUTO 26018KT 9999NDV OVC022/// 15/10 Q1006
  • 241150Z AUTO 26014KT 9999NDV BKN015/// 16/12 Q1005

TAF AMD TAF EKBI
Valide du 24 à 12h jusqu'au 25 à 12h UTC


241304Z 2412/2512 24012KT 9999 BKN030
TEMPO 2412/2417 26015G28KT
TEMPO 2509/2512 26018G30KT SCT030TCU
Pas de NOTAMs connus pour ce terrain.



MET'MAP, la Météo Aéronautique d'un coup d'oeil ! - Copyright ORBIFLY Décembre 2007 - Disclaimer

ORBIFLY MET'MAP TEAM :

Programmation & Développement : Alexandra Zaïnal
Conception & Développement : Baudouin d'Aumeries
Co-Programmation & Développement : Marc-Olivier Méhu
Soutien technique & logistique : Manuel Goepfert

Contact : metmap@orbifly.com




SOURCES & CREDITS :

   NOAA